sensor_id;sensor_type;location;lat;lon;timestamp;P1;durP1;ratioP1;P2;durP2;ratioP2
23632;SDS011;11993;48.748;9.166;2023-01-05T00:01:20;0.60;;;0.50;;
23632;SDS011;11993;48.748;9.166;2023-01-05T00:03:45;0.75;;;0.68;;
23632;SDS011;11993;48.748;9.166;2023-01-05T00:06:13;0.60;;;0.60;;
23632;SDS011;11993;48.748;9.166;2023-01-05T00:08:39;0.90;;;0.70;;
23632;SDS011;11993;48.748;9.166;2023-01-05T00:11:09;0.80;;;0.70;;
23632;SDS011;11993;48.748;9.166;2023-01-05T00:13:56;3.30;;;1.13;;
23632;SDS011;11993;48.748;9.166;2023-01-05T00:16:40;1.75;;;0.55;;
23632;SDS011;11993;48.748;9.166;2023-01-05T00:19:24;0.40;;;0.40;;
23632;SDS011;11993;48.748;9.166;2023-01-05T00:22:19;0.60;;;0.60;;
23632;SDS011;11993;48.748;9.166;2023-01-05T00:24:56;0.63;;;0.50;;
23632;SDS011;11993;48.748;9.166;2023-01-05T00:27:22;0.73;;;0.43;;
23632;SDS011;11993;48.748;9.166;2023-01-05T00:29:48;2.17;;;0.93;;
23632;SDS011;11993;48.748;9.166;2023-01-05T00:32:14;0.52;;;0.52;;
23632;SDS011;11993;48.748;9.166;2023-01-05T00:34:39;0.50;;;0.50;;
23632;SDS011;11993;48.748;9.166;2023-01-05T00:37:05;0.85;;;0.40;;
23632;SDS011;11993;48.748;9.166;2023-01-05T00:39:30;0.50;;;0.50;;
23632;SDS011;11993;48.748;9.166;2023-01-05T00:41:56;0.50;;;0.50;;
23632;SDS011;11993;48.748;9.166;2023-01-05T00:44:21;0.57;;;0.50;;
23632;SDS011;11993;48.748;9.166;2023-01-05T00:46:47;0.40;;;0.40;;
23632;SDS011;11993;48.748;9.166;2023-01-05T00:49:12;2.47;;;0.43;;
23632;SDS011;11993;48.748;9.166;2023-01-05T00:51:38;0.68;;;0.55;;
23632;SDS011;11993;48.748;9.166;2023-01-05T00:54:03;0.57;;;0.52;;
23632;SDS011;11993;48.748;9.166;2023-01-05T00:56:29;0.70;;;0.70;;
23632;SDS011;11993;48.748;9.166;2023-01-05T00:58:54;0.60;;;0.60;;
23632;SDS011;11993;48.748;9.166;2023-01-05T01:01:20;2.83;;;0.50;;
23632;SDS011;11993;48.748;9.166;2023-01-05T01:03:46;1.42;;;0.60;;
23632;SDS011;11993;48.748;9.166;2023-01-05T01:06:11;0.73;;;0.52;;
23632;SDS011;11993;48.748;9.166;2023-01-05T01:08:37;0.50;;;0.50;;
23632;SDS011;11993;48.748;9.166;2023-01-05T01:11:07;0.95;;;0.50;;
23632;SDS011;11993;48.748;9.166;2023-01-05T01:13:33;1.30;;;0.40;;
23632;SDS011;11993;48.748;9.166;2023-01-05T01:16:06;0.60;;;0.40;;
23632;SDS011;11993;48.748;9.166;2023-01-05T01:18:32;0.40;;;0.40;;
23632;SDS011;11993;48.748;9.166;2023-01-05T01:20:58;0.40;;;0.40;;
23632;SDS011;11993;48.748;9.166;2023-01-05T01:23:25;1.50;;;0.45;;
23632;SDS011;11993;48.748;9.166;2023-01-05T01:25:51;1.85;;;0.45;;
23632;SDS011;11993;48.748;9.166;2023-01-05T01:28:16;1.35;;;0.60;;
23632;SDS011;11993;48.748;9.166;2023-01-05T01:30:42;0.30;;;0.30;;
23632;SDS011;11993;48.748;9.166;2023-01-05T01:33:07;0.60;;;0.60;;
23632;SDS011;11993;48.748;9.166;2023-01-05T01:35:33;0.40;;;0.40;;
23632;SDS011;11993;48.748;9.166;2023-01-05T01:38:01;0.65;;;0.50;;
23632;SDS011;11993;48.748;9.166;2023-01-05T01:40:27;0.55;;;0.47;;
23632;SDS011;11993;48.748;9.166;2023-01-05T01:42:53;0.38;;;0.38;;
23632;SDS011;11993;48.748;9.166;2023-01-05T01:45:22;0.40;;;0.40;;
23632;SDS011;11993;48.748;9.166;2023-01-05T01:47:50;0.40;;;0.40;;
23632;SDS011;11993;48.748;9.166;2023-01-05T01:52:51;0.70;;;0.47;;
23632;SDS011;11993;48.748;9.166;2023-01-05T01:55:21;0.63;;;0.40;;
23632;SDS011;11993;48.748;9.166;2023-01-05T01:57:47;0.40;;;0.40;;
23632;SDS011;11993;48.748;9.166;2023-01-05T02:00:14;1.17;;;0.60;;
23632;SDS011;11993;48.748;9.166;2023-01-05T02:02:41;0.40;;;0.40;;
23632;SDS011;11993;48.748;9.166;2023-01-05T02:05:08;0.47;;;0.47;;
23632;SDS011;11993;48.748;9.166;2023-01-05T02:07:36;0.50;;;0.50;;
23632;SDS011;11993;48.748;9.166;2023-01-05T02:10:06;0.45;;;0.40;;
23632;SDS011;11993;48.748;9.166;2023-01-05T02:26:36;0.40;;;0.40;;
23632;SDS011;11993;48.748;9.166;2023-01-05T02:31:52;2.22;;;0.40;;
23632;SDS011;11993;48.748;9.166;2023-01-05T02:34:29;0.47;;;0.30;;
23632;SDS011;11993;48.748;9.166;2023-01-05T02:37:08;0.30;;;0.30;;
23632;SDS011;11993;48.748;9.166;2023-01-05T02:39:47;0.30;;;0.30;;
23632;SDS011;11993;48.748;9.166;2023-01-05T02:42:23;2.45;;;0.40;;
23632;SDS011;11993;48.748;9.166;2023-01-05T02:44:51;0.55;;;0.45;;
23632;SDS011;11993;48.748;9.166;2023-01-05T02:52:48;0.30;;;0.30;;
23632;SDS011;11993;48.748;9.166;2023-01-05T02:55:23;0.32;;;0.32;;
23632;SDS011;11993;48.748;9.166;2023-01-05T02:58:00;1.05;;;0.40;;
23632;SDS011;11993;48.748;9.166;2023-01-05T03:00:38;0.57;;;0.30;;
23632;SDS011;11993;48.748;9.166;2023-01-05T03:03:17;1.15;;;0.40;;
23632;SDS011;11993;48.748;9.166;2023-01-05T03:05:58;0.40;;;0.40;;
23632;SDS011;11993;48.748;9.166;2023-01-05T03:08:30;0.20;;;0.20;;
23632;SDS011;11993;48.748;9.166;2023-01-05T03:11:02;0.30;;;0.30;;
23632;SDS011;11993;48.748;9.166;2023-01-05T03:13:53;0.55;;;0.45;;
23632;SDS011;11993;48.748;9.166;2023-01-05T03:16:35;0.65;;;0.45;;
23632;SDS011;11993;48.748;9.166;2023-01-05T03:19:03;0.65;;;0.40;;
23632;SDS011;11993;48.748;9.166;2023-01-05T03:21:52;0.30;;;0.30;;
23632;SDS011;11993;48.748;9.166;2023-01-05T03:24:39;0.47;;;0.38;;
23632;SDS011;11993;48.748;9.166;2023-01-05T03:27:25;0.30;;;0.30;;
23632;SDS011;11993;48.748;9.166;2023-01-05T03:30:10;3.25;;;0.38;;
23632;SDS011;11993;48.748;9.166;2023-01-05T03:32:57;0.77;;;0.30;;
23632;SDS011;11993;48.748;9.166;2023-01-05T03:35:54;0.40;;;0.32;;
23632;SDS011;11993;48.748;9.166;2023-01-05T03:38:30;2.28;;;0.40;;
23632;SDS011;11993;48.748;9.166;2023-01-05T03:40:59;0.30;;;0.30;;
23632;SDS011;11993;48.748;9.166;2023-01-05T03:43:28;0.30;;;0.30;;
23632;SDS011;11993;48.748;9.166;2023-01-05T03:45:58;1.45;;;0.35;;
23632;SDS011;11993;48.748;9.166;2023-01-05T03:48:24;0.55;;;0.50;;
23632;SDS011;11993;48.748;9.166;2023-01-05T03:50:52;0.20;;;0.20;;
23632;SDS011;11993;48.748;9.166;2023-01-05T03:53:18;0.60;;;0.28;;
23632;SDS011;11993;48.748;9.166;2023-01-05T03:55:43;0.28;;;0.28;;
23632;SDS011;11993;48.748;9.166;2023-01-05T03:58:09;0.40;;;0.40;;
23632;SDS011;11993;48.748;9.166;2023-01-05T04:00:35;0.75;;;0.30;;
23632;SDS011;11993;48.748;9.166;2023-01-05T04:03:00;0.68;;;0.38;;
23632;SDS011;11993;48.748;9.166;2023-01-05T04:05:26;0.35;;;0.35;;
23632;SDS011;11993;48.748;9.166;2023-01-05T04:07:52;2.17;;;0.30;;
23632;SDS011;11993;48.748;9.166;2023-01-05T04:10:17;0.40;;;0.40;;
23632;SDS011;11993;48.748;9.166;2023-01-05T04:12:43;0.30;;;0.30;;
23632;SDS011;11993;48.748;9.166;2023-01-05T04:15:10;0.22;;;0.22;;
23632;SDS011;11993;48.748;9.166;2023-01-05T04:17:36;0.43;;;0.35;;
23632;SDS011;11993;48.748;9.166;2023-01-05T04:20:01;0.30;;;0.30;;
23632;SDS011;11993;48.748;9.166;2023-01-05T04:22:29;0.32;;;0.32;;
23632;SDS011;11993;48.748;9.166;2023-01-05T04:24:55;0.45;;;0.30;;
23632;SDS011;11993;48.748;9.166;2023-01-05T04:27:21;0.38;;;0.38;;
23632;SDS011;11993;48.748;9.166;2023-01-05T04:29:47;0.40;;;0.40;;
23632;SDS011;11993;48.748;9.166;2023-01-05T04:32:12;0.43;;;0.40;;
23632;SDS011;11993;48.748;9.166;2023-01-05T04:34:38;0.40;;;0.40;;
23632;SDS011;11993;48.748;9.166;2023-01-05T04:37:03;0.32;;;0.32;;
23632;SDS011;11993;48.748;9.166;2023-01-05T04:39:29;0.20;;;0.20;;
23632;SDS011;11993;48.748;9.166;2023-01-05T04:41:54;0.95;;;0.43;;
23632;SDS011;11993;48.748;9.166;2023-01-05T04:44:20;0.35;;;0.35;;
23632;SDS011;11993;48.748;9.166;2023-01-05T04:46:45;0.40;;;0.40;;
23632;SDS011;11993;48.748;9.166;2023-01-05T04:49:11;1.08;;;0.50;;
23632;SDS011;11993;48.748;9.166;2023-01-05T04:51:36;0.52;;;0.20;;
23632;SDS011;11993;48.748;9.166;2023-01-05T04:54:02;0.20;;;0.20;;
23632;SDS011;11993;48.748;9.166;2023-01-05T04:56:28;1.45;;;0.35;;
23632;SDS011;11993;48.748;9.166;2023-01-05T04:58:53;1.40;;;0.35;;
23632;SDS011;11993;48.748;9.166;2023-01-05T05:01:19;0.38;;;0.38;;
23632;SDS011;11993;48.748;9.166;2023-01-05T05:03:45;0.28;;;0.28;;
23632;SDS011;11993;48.748;9.166;2023-01-05T05:06:10;0.40;;;0.40;;
23632;SDS011;11993;48.748;9.166;2023-01-05T05:08:36;0.30;;;0.30;;
23632;SDS011;11993;48.748;9.166;2023-01-05T05:11:01;0.73;;;0.40;;
23632;SDS011;11993;48.748;9.166;2023-01-05T05:13:27;0.30;;;0.30;;
23632;SDS011;11993;48.748;9.166;2023-01-05T05:15:53;0.28;;;0.28;;
23632;SDS011;11993;48.748;9.166;2023-01-05T05:18:18;0.50;;;0.38;;
23632;SDS011;11993;48.748;9.166;2023-01-05T05:20:46;0.95;;;0.30;;
23632;SDS011;11993;48.748;9.166;2023-01-05T05:23:14;0.82;;;0.40;;
23632;SDS011;11993;48.748;9.166;2023-01-05T05:25:39;0.30;;;0.30;;
23632;SDS011;11993;48.748;9.166;2023-01-05T05:28:05;1.55;;;0.50;;
23632;SDS011;11993;48.748;9.166;2023-01-05T05:30:30;0.20;;;0.20;;
23632;SDS011;11993;48.748;9.166;2023-01-05T05:32:56;0.20;;;0.20;;
23632;SDS011;11993;48.748;9.166;2023-01-05T05:35:21;3.47;;;0.50;;
23632;SDS011;11993;48.748;9.166;2023-01-05T05:37:47;0.20;;;0.20;;
23632;SDS011;11993;48.748;9.166;2023-01-05T05:40:12;1.48;;;0.60;;
23632;SDS011;11993;48.748;9.166;2023-01-05T05:42:38;0.52;;;0.40;;
23632;SDS011;11993;48.748;9.166;2023-01-05T05:45:04;1.95;;;0.50;;
23632;SDS011;11993;48.748;9.166;2023-01-05T05:47:30;1.42;;;0.75;;
23632;SDS011;11993;48.748;9.166;2023-01-05T05:49:55;2.13;;;0.50;;
23632;SDS011;11993;48.748;9.166;2023-01-05T05:52:21;1.10;;;0.60;;
23632;SDS011;11993;48.748;9.166;2023-01-05T05:54:46;0.38;;;0.30;;
23632;SDS011;11993;48.748;9.166;2023-01-05T05:57:12;0.47;;;0.43;;
23632;SDS011;11993;48.748;9.166;2023-01-05T05:59:37;1.05;;;0.90;;
23632;SDS011;11993;48.748;9.166;2023-01-05T06:02:03;1.40;;;1.23;;
23632;SDS011;11993;48.748;9.166;2023-01-05T06:04:28;2.95;;;0.80;;
23632;SDS011;11993;48.748;9.166;2023-01-05T06:06:54;7.13;;;5.22;;
23632;SDS011;11993;48.748;9.166;2023-01-05T06:09:19;3.78;;;1.98;;
23632;SDS011;11993;48.748;9.166;2023-01-05T06:11:45;1.20;;;1.02;;
23632;SDS011;11993;48.748;9.166;2023-01-05T06:14:10;3.20;;;0.30;;
23632;SDS011;11993;48.748;9.166;2023-01-05T06:16:36;7.22;;;4.35;;
23632;SDS011;11993;48.748;9.166;2023-01-05T06:19:01;2.00;;;1.20;;
23632;SDS011;11993;48.748;9.166;2023-01-05T06:21:27;0.30;;;0.30;;
23632;SDS011;11993;48.748;9.166;2023-01-05T06:23:53;1.00;;;0.90;;
23632;SDS011;11993;48.748;9.166;2023-01-05T06:26:19;0.30;;;0.30;;
23632;SDS011;11993;48.748;9.166;2023-01-05T06:28:44;0.80;;;0.50;;
23632;SDS011;11993;48.748;9.166;2023-01-05T06:31:10;0.50;;;0.50;;
23632;SDS011;11993;48.748;9.166;2023-01-05T06:33:36;0.30;;;0.30;;
23632;SDS011;11993;48.748;9.166;2023-01-05T06:36:01;0.70;;;0.40;;
23632;SDS011;11993;48.748;9.166;2023-01-05T06:38:27;0.30;;;0.30;;
23632;SDS011;11993;48.748;9.166;2023-01-05T06:40:53;9.73;;;0.73;;
23632;SDS011;11993;48.748;9.166;2023-01-05T06:43:19;0.52;;;0.40;;
23632;SDS011;11993;48.748;9.166;2023-01-05T06:45:45;1.58;;;0.43;;
23632;SDS011;11993;48.748;9.166;2023-01-05T06:48:10;1.23;;;0.50;;
23632;SDS011;11993;48.748;9.166;2023-01-05T06:50:36;3.38;;;0.60;;
23632;SDS011;11993;48.748;9.166;2023-01-05T06:53:01;0.95;;;0.70;;
23632;SDS011;11993;48.748;9.166;2023-01-05T06:55:27;1.27;;;0.50;;
23632;SDS011;11993;48.748;9.166;2023-01-05T06:57:53;3.15;;;1.95;;
23632;SDS011;11993;48.748;9.166;2023-01-05T07:00:18;2.10;;;1.00;;
23632;SDS011;11993;48.748;9.166;2023-01-05T07:02:44;7.10;;;1.15;;
23632;SDS011;11993;48.748;9.166;2023-01-05T07:05:09;4.90;;;1.08;;
23632;SDS011;11993;48.748;9.166;2023-01-05T07:07:35;4.68;;;1.27;;
23632;SDS011;11993;48.748;9.166;2023-01-05T07:10:01;2.70;;;0.98;;
23632;SDS011;11993;48.748;9.166;2023-01-05T07:12:26;25.15;;;15.05;;
23632;SDS011;11993;48.748;9.166;2023-01-05T07:14:52;16.75;;;9.82;;
23632;SDS011;11993;48.748;9.166;2023-01-05T07:17:17;5.80;;;1.63;;
23632;SDS011;11993;48.748;9.166;2023-01-05T07:19:43;4.75;;;1.20;;
23632;SDS011;11993;48.748;9.166;2023-01-05T07:22:09;3.50;;;1.27;;
23632;SDS011;11993;48.748;9.166;2023-01-05T07:24:34;4.60;;;1.33;;
23632;SDS011;11993;48.748;9.166;2023-01-05T07:27:00;4.93;;;1.00;;
23632;SDS011;11993;48.748;9.166;2023-01-05T07:29:26;3.58;;;0.90;;
23632;SDS011;11993;48.748;9.166;2023-01-05T07:31:52;8.40;;;1.40;;
23632;SDS011;11993;48.748;9.166;2023-01-05T07:34:18;5.60;;;1.15;;
23632;SDS011;11993;48.748;9.166;2023-01-05T07:36:44;7.05;;;1.40;;
23632;SDS011;11993;48.748;9.166;2023-01-05T07:39:09;3.42;;;0.90;;
23632;SDS011;11993;48.748;9.166;2023-01-05T07:41:35;3.75;;;1.17;;
23632;SDS011;11993;48.748;9.166;2023-01-05T07:44:01;2.85;;;1.15;;
23632;SDS011;11993;48.748;9.166;2023-01-05T07:46:30;4.55;;;1.10;;
23632;SDS011;11993;48.748;9.166;2023-01-05T07:48:56;4.90;;;1.00;;
23632;SDS011;11993;48.748;9.166;2023-01-05T07:51:22;2.65;;;1.20;;
23632;SDS011;11993;48.748;9.166;2023-01-05T07:53:48;4.85;;;1.88;;
23632;SDS011;11993;48.748;9.166;2023-01-05T07:56:13;5.90;;;1.30;;
23632;SDS011;11993;48.748;9.166;2023-01-05T07:58:39;3.47;;;0.80;;
23632;SDS011;11993;48.748;9.166;2023-01-05T08:01:08;5.85;;;1.30;;
23632;SDS011;11993;48.748;9.166;2023-01-05T08:03:36;5.57;;;1.10;;
23632;SDS011;11993;48.748;9.166;2023-01-05T08:06:03;5.57;;;1.60;;
23632;SDS011;11993;48.748;9.166;2023-01-05T08:08:30;5.38;;;1.13;;
23632;SDS011;11993;48.748;9.166;2023-01-05T08:10:55;5.18;;;1.65;;
23632;SDS011;11993;48.748;9.166;2023-01-05T08:13:21;3.72;;;1.23;;
23632;SDS011;11993;48.748;9.166;2023-01-05T08:16:05;9.63;;;2.22;;
23632;SDS011;11993;48.748;9.166;2023-01-05T08:18:31;4.60;;;1.15;;
23632;SDS011;11993;48.748;9.166;2023-01-05T08:20:59;7.70;;;1.40;;
23632;SDS011;11993;48.748;9.166;2023-01-05T08:23:31;7.10;;;1.50;;
23632;SDS011;11993;48.748;9.166;2023-01-05T08:26:02;4.63;;;1.27;;
23632;SDS011;11993;48.748;9.166;2023-01-05T08:28:36;6.25;;;1.10;;
23632;SDS011;11993;48.748;9.166;2023-01-05T08:31:03;3.78;;;1.10;;
23632;SDS011;11993;48.748;9.166;2023-01-05T08:33:40;3.30;;;1.00;;
23632;SDS011;11993;48.748;9.166;2023-01-05T08:36:13;5.07;;;1.77;;
23632;SDS011;11993;48.748;9.166;2023-01-05T08:38:53;4.88;;;1.48;;
23632;SDS011;11993;48.748;9.166;2023-01-05T08:41:27;7.40;;;1.73;;
23632;SDS011;11993;48.748;9.166;2023-01-05T08:43:56;5.03;;;1.30;;
23632;SDS011;11993;48.748;9.166;2023-01-05T08:46:24;6.35;;;1.88;;
23632;SDS011;11993;48.748;9.166;2023-01-05T08:48:52;6.75;;;1.73;;
23632;SDS011;11993;48.748;9.166;2023-01-05T08:51:19;9.73;;;1.83;;
23632;SDS011;11993;48.748;9.166;2023-01-05T08:53:45;5.53;;;1.90;;
23632;SDS011;11993;48.748;9.166;2023-01-05T08:56:12;11.57;;;2.40;;
23632;SDS011;11993;48.748;9.166;2023-01-05T08:58:38;11.40;;;2.60;;
23632;SDS011;11993;48.748;9.166;2023-01-05T09:01:08;10.10;;;1.90;;
23632;SDS011;11993;48.748;9.166;2023-01-05T09:03:35;16.20;;;2.40;;
23632;SDS011;11993;48.748;9.166;2023-01-05T09:06:01;10.27;;;2.33;;
23632;SDS011;11993;48.748;9.166;2023-01-05T09:08:28;10.55;;;2.42;;
23632;SDS011;11993;48.748;9.166;2023-01-05T09:11:04;15.75;;;2.70;;
23632;SDS011;11993;48.748;9.166;2023-01-05T09:13:30;11.82;;;2.22;;
23632;SDS011;11993;48.748;9.166;2023-01-05T09:15:56;10.40;;;2.50;;
23632;SDS011;11993;48.748;9.166;2023-01-05T09:18:21;10.93;;;2.53;;
23632;SDS011;11993;48.748;9.166;2023-01-05T09:20:53;14.30;;;2.25;;
23632;SDS011;11993;48.748;9.166;2023-01-05T09:23:23;9.32;;;2.35;;
23632;SDS011;11993;48.748;9.166;2023-01-05T09:25:48;15.57;;;2.33;;
23632;SDS011;11993;48.748;9.166;2023-01-05T09:28:14;10.60;;;2.47;;
23632;SDS011;11993;48.748;9.166;2023-01-05T09:30:39;10.80;;;2.47;;
23632;SDS011;11993;48.748;9.166;2023-01-05T09:33:05;15.05;;;2.67;;
23632;SDS011;11993;48.748;9.166;2023-01-05T09:35:30;11.35;;;2.53;;
23632;SDS011;11993;48.748;9.166;2023-01-05T09:37:56;15.13;;;3.13;;
23632;SDS011;11993;48.748;9.166;2023-01-05T09:40:21;16.70;;;3.05;;
23632;SDS011;11993;48.748;9.166;2023-01-05T09:42:47;18.55;;;3.20;;
23632;SDS011;11993;48.748;9.166;2023-01-05T09:45:14;17.02;;;3.33;;
23632;SDS011;11993;48.748;9.166;2023-01-05T09:47:48;13.83;;;2.87;;
23632;SDS011;11993;48.748;9.166;2023-01-05T09:50:19;19.02;;;3.85;;
23632;SDS011;11993;48.748;9.166;2023-01-05T09:52:47;15.43;;;2.67;;
23632;SDS011;11993;48.748;9.166;2023-01-05T09:55:15;12.70;;;2.65;;
23632;SDS011;11993;48.748;9.166;2023-01-05T09:57:51;16.85;;;3.03;;
23632;SDS011;11993;48.748;9.166;2023-01-05T10:00:30;20.45;;;3.35;;
23632;SDS011;11993;48.748;9.166;2023-01-05T10:03:05;14.93;;;3.25;;
23632;SDS011;11993;48.748;9.166;2023-01-05T10:05:38;14.48;;;2.45;;
23632;SDS011;11993;48.748;9.166;2023-01-05T10:08:07;16.38;;;3.22;;
23632;SDS011;11993;48.748;9.166;2023-01-05T10:10:44;11.98;;;2.58;;
23632;SDS011;11993;48.748;9.166;2023-01-05T10:13:35;14.18;;;2.50;;
23632;SDS011;11993;48.748;9.166;2023-01-05T10:16:04;18.00;;;3.42;;
23632;SDS011;11993;48.748;9.166;2023-01-05T10:18:33;15.18;;;3.15;;
23632;SDS011;11993;48.748;9.166;2023-01-05T10:21:22;13.52;;;3.15;;
23632;SDS011;11993;48.748;9.166;2023-01-05T10:24:06;14.98;;;3.40;;
23632;SDS011;11993;48.748;9.166;2023-01-05T10:29:21;14.68;;;3.10;;
23632;SDS011;11993;48.748;9.166;2023-01-05T10:32:00;21.75;;;7.55;;
23632;SDS011;11993;48.748;9.166;2023-01-05T10:34:57;14.13;;;2.97;;
23632;SDS011;11993;48.748;9.166;2023-01-05T10:40:51;15.43;;;3.00;;
23632;SDS011;11993;48.748;9.166;2023-01-05T10:45:51;11.75;;;2.55;;
23632;SDS011;11993;48.748;9.166;2023-01-05T10:48:17;12.65;;;2.53;;
23632;SDS011;11993;48.748;9.166;2023-01-05T10:50:47;10.23;;;2.70;;
23632;SDS011;11993;48.748;9.166;2023-01-05T10:53:14;10.82;;;2.70;;
23632;SDS011;11993;48.748;9.166;2023-01-05T10:58:26;10.82;;;2.80;;
23632;SDS011;11993;48.748;9.166;2023-01-05T11:00:55;12.20;;;2.85;;
23632;SDS011;11993;48.748;9.166;2023-01-05T11:03:39;11.85;;;2.53;;
23632;SDS011;11993;48.748;9.166;2023-01-05T11:06:07;14.13;;;3.03;;
23632;SDS011;11993;48.748;9.166;2023-01-05T11:08:44;13.02;;;2.63;;
23632;SDS011;11993;48.748;9.166;2023-01-05T11:11:10;8.90;;;2.70;;
23632;SDS011;11993;48.748;9.166;2023-01-05T11:13:48;15.05;;;2.58;;
23632;SDS011;11993;48.748;9.166;2023-01-05T11:16:17;9.15;;;2.35;;
23632;SDS011;11993;48.748;9.166;2023-01-05T11:21:20;12.82;;;2.88;;
23632;SDS011;11993;48.748;9.166;2023-01-05T11:23:51;18.05;;;3.15;;
23632;SDS011;11993;48.748;9.166;2023-01-05T11:26:23;11.27;;;3.17;;
23632;SDS011;11993;48.748;9.166;2023-01-05T11:31:30;12.80;;;2.67;;
23632;SDS011;11993;48.748;9.166;2023-01-05T11:34:02;12.60;;;3.03;;
23632;SDS011;11993;48.748;9.166;2023-01-05T11:36:32;10.93;;;2.38;;
23632;SDS011;11993;48.748;9.166;2023-01-05T11:38:58;14.02;;;2.92;;
23632;SDS011;11993;48.748;9.166;2023-01-05T11:41:24;16.85;;;3.40;;
23632;SDS011;11993;48.748;9.166;2023-01-05T11:43:50;18.02;;;3.05;;
23632;SDS011;11993;48.748;9.166;2023-01-05T11:46:18;10.88;;;2.58;;
23632;SDS011;11993;48.748;9.166;2023-01-05T11:48:51;11.50;;;2.75;;
23632;SDS011;11993;48.748;9.166;2023-01-05T11:51:31;14.73;;;2.78;;
23632;SDS011;11993;48.748;9.166;2023-01-05T11:53:58;13.77;;;3.17;;
23632;SDS011;11993;48.748;9.166;2023-01-05T11:56:25;10.18;;;2.55;;
23632;SDS011;11993;48.748;9.166;2023-01-05T11:58:52;17.48;;;3.50;;
23632;SDS011;11993;48.748;9.166;2023-01-05T12:04:04;12.30;;;2.67;;
23632;SDS011;11993;48.748;9.166;2023-01-05T12:07:10;9.95;;;2.60;;
23632;SDS011;11993;48.748;9.166;2023-01-05T12:10:01;16.27;;;3.08;;
23632;SDS011;11993;48.748;9.166;2023-01-05T12:12:54;12.80;;;2.80;;
23632;SDS011;11993;48.748;9.166;2023-01-05T12:15:51;14.77;;;2.95;;
23632;SDS011;11993;48.748;9.166;2023-01-05T12:21:16;13.15;;;3.13;;
23632;SDS011;11993;48.748;9.166;2023-01-05T12:32:10;16.33;;;3.17;;
23632;SDS011;11993;48.748;9.166;2023-01-05T12:43:02;14.80;;;2.95;;
23632;SDS011;11993;48.748;9.166;2023-01-05T12:45:55;12.48;;;3.08;;
23632;SDS011;11993;48.748;9.166;2023-01-05T12:48:42;9.95;;;2.67;;
23632;SDS011;11993;48.748;9.166;2023-01-05T12:51:23;15.02;;;3.38;;
23632;SDS011;11993;48.748;9.166;2023-01-05T12:53:55;18.15;;;3.47;;
23632;SDS011;11993;48.748;9.166;2023-01-05T12:56:45;16.50;;;3.35;;
23632;SDS011;11993;48.748;9.166;2023-01-05T12:59:16;19.95;;;7.65;;
23632;SDS011;11993;48.748;9.166;2023-01-05T13:01:51;14.77;;;3.17;;
23632;SDS011;11993;48.748;9.166;2023-01-05T13:04:49;16.65;;;3.05;;
23632;SDS011;11993;48.748;9.166;2023-01-05T13:07:27;14.40;;;2.90;;
23632;SDS011;11993;48.748;9.166;2023-01-05T13:10:04;11.32;;;2.88;;
23632;SDS011;11993;48.748;9.166;2023-01-05T13:12:36;16.58;;;3.15;;
23632;SDS011;11993;48.748;9.166;2023-01-05T13:15:05;17.77;;;3.28;;
23632;SDS011;11993;48.748;9.166;2023-01-05T13:17:43;10.50;;;2.78;;
23632;SDS011;11993;48.748;9.166;2023-01-05T13:20:17;12.70;;;2.65;;
23632;SDS011;11993;48.748;9.166;2023-01-05T13:22:50;14.55;;;3.03;;
23632;SDS011;11993;48.748;9.166;2023-01-05T13:25:21;17.60;;;2.78;;
23632;SDS011;11993;48.748;9.166;2023-01-05T13:27:50;19.42;;;3.50;;
23632;SDS011;11993;48.748;9.166;2023-01-05T13:30:22;18.30;;;3.60;;
23632;SDS011;11993;48.748;9.166;2023-01-05T13:33:11;11.82;;;3.10;;
23632;SDS011;11993;48.748;9.166;2023-01-05T13:35:56;14.82;;;3.38;;
23632;SDS011;11993;48.748;9.166;2023-01-05T13:38:58;16.42;;;3.70;;
23632;SDS011;11993;48.748;9.166;2023-01-05T13:47:20;18.63;;;4.13;;
23632;SDS011;11993;48.748;9.166;2023-01-05T13:55:27;21.15;;;3.55;;
23632;SDS011;11993;48.748;9.166;2023-01-05T13:57:55;15.50;;;2.78;;
23632;SDS011;11993;48.748;9.166;2023-01-05T14:00:32;25.13;;;3.83;;
23632;SDS011;11993;48.748;9.166;2023-01-05T14:03:06;13.13;;;3.47;;
23632;SDS011;11993;48.748;9.166;2023-01-05T14:05:59;15.45;;;3.33;;
23632;SDS011;11993;48.748;9.166;2023-01-05T14:08:32;19.05;;;3.15;;
23632;SDS011;11993;48.748;9.166;2023-01-05T14:19:12;19.98;;;3.97;;
23632;SDS011;11993;48.748;9.166;2023-01-05T14:24:42;16.38;;;3.08;;
23632;SDS011;11993;48.748;9.166;2023-01-05T14:27:18;19.17;;;3.55;;
23632;SDS011;11993;48.748;9.166;2023-01-05T14:32:19;17.27;;;3.92;;
23632;SDS011;11993;48.748;9.166;2023-01-05T14:35:35;19.77;;;3.17;;
23632;SDS011;11993;48.748;9.166;2023-01-05T14:37:37;14.87;;;4.00;;
23632;SDS011;11993;48.748;9.166;2023-01-05T14:40:12;19.88;;;4.32;;
23632;SDS011;11993;48.748;9.166;2023-01-05T14:42:57;17.10;;;3.60;;
23632;SDS011;11993;48.748;9.166;2023-01-05T14:45:28;16.20;;;3.72;;
23632;SDS011;11993;48.748;9.166;2023-01-05T14:47:59;15.73;;;3.45;;
23632;SDS011;11993;48.748;9.166;2023-01-05T14:53:01;20.98;;;4.72;;
23632;SDS011;11993;48.748;9.166;2023-01-05T14:55:30;19.63;;;3.35;;
23632;SDS011;11993;48.748;9.166;2023-01-05T14:58:45;16.35;;;3.25;;
23632;SDS011;11993;48.748;9.166;2023-01-05T15:03:56;24.42;;;3.80;;
23632;SDS011;11993;48.748;9.166;2023-01-05T15:06:40;17.73;;;3.65;;
23632;SDS011;11993;48.748;9.166;2023-01-05T15:09:30;17.70;;;3.38;;
23632;SDS011;11993;48.748;9.166;2023-01-05T15:26:02;16.20;;;4.10;;
23632;SDS011;11993;48.748;9.166;2023-01-05T15:28:39;22.33;;;9.93;;
23632;SDS011;11993;48.748;9.166;2023-01-05T15:34:26;15.05;;;3.20;;
23632;SDS011;11993;48.748;9.166;2023-01-05T15:37:15;17.48;;;2.95;;
23632;SDS011;11993;48.748;9.166;2023-01-05T15:39:58;16.92;;;3.47;;
23632;SDS011;11993;48.748;9.166;2023-01-05T15:42:37;18.15;;;3.28;;
23632;SDS011;11993;48.748;9.166;2023-01-05T15:45:13;13.07;;;3.63;;
23632;SDS011;11993;48.748;9.166;2023-01-05T15:47:47;14.25;;;2.75;;
23632;SDS011;11993;48.748;9.166;2023-01-05T15:53:21;14.55;;;2.85;;
23632;SDS011;11993;48.748;9.166;2023-01-05T15:55:47;15.25;;;3.28;;
23632;SDS011;11993;48.748;9.166;2023-01-05T15:58:15;14.88;;;3.53;;
23632;SDS011;11993;48.748;9.166;2023-01-05T16:00:42;13.07;;;2.90;;
23632;SDS011;11993;48.748;9.166;2023-01-05T16:03:18;12.82;;;3.60;;
23632;SDS011;11993;48.748;9.166;2023-01-05T16:05:55;15.90;;;3.22;;
23632;SDS011;11993;48.748;9.166;2023-01-05T16:08:39;10.60;;;3.63;;
23632;SDS011;11993;48.748;9.166;2023-01-05T16:11:09;14.70;;;3.60;;
23632;SDS011;11993;48.748;9.166;2023-01-05T16:13:39;15.98;;;3.15;;
23632;SDS011;11993;48.748;9.166;2023-01-05T16:16:09;18.20;;;3.55;;
23632;SDS011;11993;48.748;9.166;2023-01-05T16:19:07;11.77;;;3.20;;
23632;SDS011;11993;48.748;9.166;2023-01-05T16:21:40;15.20;;;3.22;;
23632;SDS011;11993;48.748;9.166;2023-01-05T16:24:31;14.27;;;3.33;;
23632;SDS011;11993;48.748;9.166;2023-01-05T16:26:57;19.70;;;3.35;;
23632;SDS011;11993;48.748;9.166;2023-01-05T16:29:35;15.18;;;3.38;;
23632;SDS011;11993;48.748;9.166;2023-01-05T16:32:02;12.38;;;3.40;;
23632;SDS011;11993;48.748;9.166;2023-01-05T16:34:29;11.63;;;3.10;;
23632;SDS011;11993;48.748;9.166;2023-01-05T16:37:01;16.77;;;3.63;;
23632;SDS011;11993;48.748;9.166;2023-01-05T16:39:41;20.55;;;3.15;;
23632;SDS011;11993;48.748;9.166;2023-01-05T16:42:17;14.93;;;3.10;;
23632;SDS011;11993;48.748;9.166;2023-01-05T16:45:23;13.07;;;3.07;;
23632;SDS011;11993;48.748;9.166;2023-01-05T16:47:56;10.50;;;2.78;;
23632;SDS011;11993;48.748;9.166;2023-01-05T16:55:29;15.60;;;3.63;;
23632;SDS011;11993;48.748;9.166;2023-01-05T16:58:00;12.25;;;3.20;;
23632;SDS011;11993;48.748;9.166;2023-01-05T17:02:53;16.90;;;4.10;;
23632;SDS011;11993;48.748;9.166;2023-01-05T17:05:21;17.63;;;4.30;;
23632;SDS011;11993;48.748;9.166;2023-01-05T17:07:50;16.80;;;4.50;;